Pagrindinis puslapis
METAR-TAF:

METAR-TAF

Oro uostai :

General Santos, Filipinai

platuma: 06-03-29N, ilguma: 125-05-46E, Aukštis: 154 m

Dabartinis oras

Ataskaita buvo paskelbta 12 valandos ir 10 minutes, ne 09:00 UTC
Vėjas 8 kt iš Pietų/Pietryčių
Temperatūra 29°C
Drėgmė 70%
Slėgis 1011 hPa
Matomumas 10 km arba daugiau
Mažai debesys ne aukštis 1800 ft
Su prošvaistėmis ne aukštis 25000 ft

METAR: RPMR 200900Z 16008KT 9999 FEW018 BKN250 29/23 Q1011 NOSIG RMK A2985

Laikas: 05:10 (21:10 UTC)

Prognozė

Ataskaita buvo paskelbta 4 valandos ir 10 minutes, ne 17:00 UTC
Prognozė galioja nuo 20 metu 18 UTC su 21 metu 18 UTC
Vėjas 6 kt iš Pietų
Matomumas 10 km arba daugiau
Mažai debesys ne aukštis 1800 ft
Su prošvaistėmis ne aukštis 25000 ft
Laikinai
nuo 20 metu 18 UTC su 20 metu 24 UTC
Vėjas kt iš Šiaurės
Mažai debesys ne aukštis 1800 ft
Su prošvaistėmis ne aukštis 8000 ft

TAF: RPMR 201700Z 2018/2118 18006KT 9999 FEW018 BKN250 TEMPO 2018/2024 00000KT FEW018 BKN080

Orai ataskaitas ir orų prognozės (METAR, TAF).

turimą stotys yra geltonos ir raudonos taškus žemėlapyje.

Perkelti pele per norėdami pamatyti stoties vardą.

Tada spustelėkite, norėdami matyti oro stebėjimo ir prognozės.

Norėdami pakeisti žemėlapį: spustelėkite ant žalios mygtukų su juodo kryžiaus žemyn,; žalią mygtuką su brūkšneliu, jei norite nutolinti; arba žalių rodyklių gretimoms žemėlapius.


METAR-TAF: